createdAt,value
2022-09-20T00:01:28.734Z,0.82
2022-09-20T00:03:58.777Z,0.55
2022-09-20T00:06:28.940Z,0.47
2022-09-20T00:08:56.837Z,0.77
2022-09-20T00:11:27.155Z,0.70
2022-09-20T00:13:56.681Z,0.40
2022-09-20T00:16:27.748Z,0.50
2022-09-20T00:18:57.277Z,0.70
2022-09-20T00:21:28.489Z,0.45
2022-09-20T00:23:57.736Z,0.60
2022-09-20T00:26:26.819Z,0.70
2022-09-20T00:28:54.930Z,0.73
2022-09-20T00:31:23.182Z,0.60
2022-09-20T00:34:13.075Z,0.38
2022-09-20T00:41:36.765Z,0.50
2022-09-20T00:44:43.050Z,1.00
2022-09-20T00:47:36.532Z,0.52
2022-09-20T00:50:33.409Z,0.60
2022-09-20T00:53:18.733Z,0.57
2022-09-20T00:55:58.078Z,0.52
2022-09-20T00:58:28.920Z,0.65
2022-09-20T01:00:58.199Z,0.63
2022-09-20T01:03:31.354Z,0.50
2022-09-20T01:06:03.309Z,0.50
2022-09-20T01:08:32.517Z,0.63
2022-09-20T01:11:00.322Z,0.68
2022-09-20T01:13:27.769Z,0.50
2022-09-20T01:15:59.007Z,0.70
2022-09-20T01:18:28.438Z,0.98
2022-09-20T01:20:56.658Z,0.68
2022-09-20T01:23:52.213Z,0.70
2022-09-20T01:26:52.997Z,0.60
2022-09-20T01:29:57.963Z,0.70
2022-09-20T01:32:36.806Z,0.50
2022-09-20T01:35:04.837Z,0.52
2022-09-20T01:38:00.919Z,0.75
2022-09-20T01:40:44.945Z,0.63
2022-09-20T01:43:24.362Z,0.70
2022-09-20T01:45:53.030Z,0.65
2022-09-20T01:48:40.195Z,0.43
2022-09-20T01:51:35.626Z,0.40
2022-09-20T01:54:18.196Z,0.63
2022-09-20T01:56:51.522Z,0.57
2022-09-20T01:59:43.532Z,0.55
2022-09-20T02:02:16.892Z,0.65
2022-09-20T02:04:56.962Z,0.77
2022-09-20T02:07:55.485Z,0.50
2022-09-20T02:11:01.805Z,0.60
2022-09-20T02:13:40.418Z,0.43
2022-09-20T02:16:46.155Z,0.60
2022-09-20T02:19:32.258Z,0.68
2022-09-20T02:22:18.187Z,0.73
2022-09-20T02:25:04.382Z,0.77
2022-09-20T02:28:02.586Z,0.80
2022-09-20T02:30:39.070Z,0.50
2022-09-20T02:36:14.988Z,0.43
2022-09-20T02:39:22.317Z,0.90
2022-09-20T02:41:55.688Z,0.85
2022-09-20T02:44:39.438Z,0.80
2022-09-20T02:47:36.074Z,0.68
2022-09-20T02:50:41.156Z,0.77
2022-09-20T02:53:20.569Z,0.80
2022-09-20T02:56:19.436Z,0.65
2022-09-20T02:59:08.817Z,0.60
2022-09-20T03:02:13.709Z,0.70
2022-09-20T03:05:02.830Z,0.93
2022-09-20T03:08:11.913Z,0.50
2022-09-20T03:10:55.237Z,0.60
2022-09-20T03:13:50.696Z,0.93
2022-09-20T03:16:52.547Z,1.75
2022-09-20T03:19:33.403Z,0.90
2022-09-20T03:22:22.734Z,0.80
2022-09-20T03:25:05.269Z,1.10
2022-09-20T03:27:58.928Z,0.60
2022-09-20T03:30:41.593Z,0.70
2022-09-20T03:33:30.881Z,0.50
2022-09-20T03:36:20.243Z,0.80
2022-09-20T03:38:50.623Z,0.70
2022-09-20T03:41:30.669Z,0.60
2022-09-20T03:44:15.827Z,0.52
2022-09-20T03:46:48.258Z,0.50
2022-09-20T03:49:33.946Z,0.60
2022-09-20T03:52:19.534Z,0.70
2022-09-20T03:54:46.910Z,0.60
2022-09-20T03:57:26.179Z,0.70
2022-09-20T03:59:58.926Z,0.60
2022-09-20T04:03:01.817Z,0.68
2022-09-20T04:05:35.270Z,0.70
2022-09-20T04:08:31.728Z,0.50
2022-09-20T04:11:25.630Z,0.60
2022-09-20T04:14:30.152Z,0.90
2022-09-20T04:17:05.934Z,0.90
2022-09-20T04:27:43.759Z,0.40
2022-09-20T04:30:30.213Z,0.60
2022-09-20T04:33:03.650Z,0.63
2022-09-20T04:36:17.967Z,0.73
2022-09-20T04:38:55.545Z,0.70
2022-09-20T04:41:51.339Z,0.60
2022-09-20T04:44:28.015Z,0.55
2022-09-20T04:47:12.246Z,0.60
2022-09-20T04:50:11.580Z,0.57
2022-09-20T04:52:45.158Z,0.70
2022-09-20T04:55:35.480Z,0.57
2022-09-20T04:58:21.038Z,0.73
2022-09-20T05:01:03.768Z,0.85
2022-09-20T05:03:40.486Z,0.80
2022-09-20T05:06:30.100Z,0.50
2022-09-20T05:09:36.417Z,0.75
2022-09-20T05:12:35.571Z,0.70
2022-09-20T05:15:08.703Z,0.80
2022-09-20T05:17:56.301Z,0.80
2022-09-20T05:20:24.322Z,0.70
2022-09-20T05:23:08.936Z,0.80
2022-09-20T05:25:51.552Z,0.88
2022-09-20T05:28:54.876Z,1.23
2022-09-20T05:31:40.372Z,1.13
2022-09-20T05:34:47.010Z,1.20
2022-09-20T05:37:23.075Z,1.13
2022-09-20T05:40:04.486Z,0.80
2022-09-20T05:42:41.014Z,1.10
2022-09-20T05:45:27.069Z,1.17
2022-09-20T05:48:03.914Z,1.00
2022-09-20T05:51:12.608Z,1.10
2022-09-20T05:53:58.199Z,1.05
2022-09-20T05:56:39.532Z,0.98
2022-09-20T05:59:12.918Z,0.80
2022-09-20T06:01:47.154Z,1.00
2022-09-20T06:04:26.582Z,1.42
2022-09-20T06:07:31.714Z,0.90
2022-09-20T06:10:08.181Z,0.80
2022-09-20T06:12:35.862Z,0.80
2022-09-20T06:15:36.302Z,1.02
2022-09-20T06:18:36.446Z,1.85
2022-09-20T06:21:32.066Z,1.48
2022-09-20T06:24:02.390Z,1.50
2022-09-20T06:26:36.729Z,1.23
2022-09-20T06:29:11.615Z,1.33
2022-09-20T06:31:39.014Z,1.17
2022-09-20T06:34:10.486Z,1.08
2022-09-20T06:37:01.456Z,1.58
2022-09-20T06:39:57.717Z,1.10
2022-09-20T06:42:27.313Z,1.10
2022-09-20T06:44:55.516Z,1.52
2022-09-20T06:47:23.371Z,1.20
2022-09-20T06:49:50.845Z,1.25
2022-09-20T06:52:20.769Z,2.03
2022-09-20T06:54:51.861Z,1.63
2022-09-20T06:57:23.997Z,1.02
2022-09-20T06:59:51.403Z,1.45
2022-09-20T07:02:18.824Z,1.40
2022-09-20T07:04:46.305Z,1.45
2022-09-20T07:07:19.030Z,1.30
2022-09-20T07:09:47.023Z,1.85
2022-09-20T07:12:14.394Z,2.08
2022-09-20T07:14:43.156Z,1.52
2022-09-20T07:17:10.585Z,1.73
2022-09-20T07:19:38.000Z,2.63
2022-09-20T07:22:05.457Z,1.55
2022-09-20T07:24:32.894Z,1.23
2022-09-20T07:27:03.073Z,1.20
2022-09-20T07:29:31.574Z,1.77
2022-09-20T07:31:58.998Z,1.10
2022-09-20T07:34:27.256Z,1.15
2022-09-20T07:36:54.885Z,1.10
2022-09-20T07:39:22.302Z,1.65
2022-09-20T07:41:51.211Z,1.15
2022-09-20T07:44:24.359Z,0.90
2022-09-20T07:46:53.898Z,0.95
2022-09-20T07:49:22.592Z,0.93
2022-09-20T07:51:50.837Z,1.20
2022-09-20T07:54:19.005Z,1.13
2022-09-20T07:56:46.887Z,0.93
2022-09-20T07:59:14.920Z,0.90
2022-09-20T08:01:43.102Z,0.75
2022-09-20T08:04:10.595Z,0.75
2022-09-20T08:06:45.673Z,1.27
2022-09-20T08:09:13.959Z,0.90
2022-09-20T08:11:43.537Z,0.80
2022-09-20T08:14:15.759Z,0.80
2022-09-20T08:16:48.704Z,0.40
2022-09-20T08:19:18.922Z,0.70
2022-09-20T08:21:46.481Z,0.98
2022-09-20T08:24:15.001Z,0.80
2022-09-20T08:26:43.703Z,0.90
2022-09-20T08:29:11.652Z,0.73
2022-09-20T08:31:42.289Z,0.60
2022-09-20T08:34:12.290Z,0.60
2022-09-20T08:36:42.110Z,0.70
2022-09-20T08:42:09.010Z,0.70
2022-09-20T08:44:47.805Z,0.50
2022-09-20T08:47:23.250Z,0.52
2022-09-20T08:49:57.423Z,0.82
2022-09-20T08:52:37.608Z,0.95
2022-09-20T08:55:18.075Z,0.80
2022-09-20T08:57:56.984Z,0.77
2022-09-20T09:00:29.579Z,0.93
2022-09-20T09:03:00.870Z,0.80
2022-09-20T09:05:55.601Z,0.63
2022-09-20T09:08:31.059Z,0.75
2022-09-20T09:11:04.756Z,0.80
2022-09-20T09:13:37.909Z,0.80
2022-09-20T09:16:22.657Z,1.27
2022-09-20T09:18:53.175Z,0.73
2022-09-20T09:21:23.370Z,0.82
2022-09-20T09:24:05.492Z,1.20
2022-09-20T09:26:38.840Z,0.77
2022-09-20T09:29:23.473Z,1.00
2022-09-20T09:31:54.681Z,0.82
2022-09-20T09:34:38.822Z,0.85
2022-09-20T09:37:06.258Z,0.70
2022-09-20T09:39:38.390Z,0.68
2022-09-20T09:42:26.250Z,1.02
2022-09-20T09:44:53.697Z,0.63
2022-09-20T09:47:29.039Z,0.50
2022-09-20T09:50:03.666Z,0.68
2022-09-20T09:52:34.035Z,0.80
2022-09-20T09:55:05.675Z,0.70
2022-09-20T09:57:39.596Z,0.90
2022-09-20T10:00:19.417Z,1.13
2022-09-20T10:03:26.781Z,1.50
2022-09-20T10:06:04.648Z,0.65
2022-09-20T10:08:54.245Z,0.80
2022-09-20T10:11:58.646Z,0.70
2022-09-20T10:14:33.764Z,0.80
2022-09-20T10:17:24.917Z,0.70
2022-09-20T10:20:08.044Z,1.13
2022-09-20T10:23:06.754Z,1.20
2022-09-20T10:25:44.235Z,0.63
2022-09-20T10:28:21.110Z,0.70
2022-09-20T10:31:19.342Z,0.60
2022-09-20T10:34:07.050Z,0.70
2022-09-20T10:36:55.882Z,0.80
2022-09-20T10:39:38.797Z,0.60
2022-09-20T10:42:49.650Z,0.50
2022-09-20T10:46:08.383Z,0.70
2022-09-20T10:48:38.356Z,1.20
2022-09-20T10:51:30.760Z,0.95
2022-09-20T10:54:15.342Z,0.60
2022-09-20T10:56:53.021Z,0.60
2022-09-20T10:59:23.524Z,0.80
2022-09-20T11:02:36.223Z,0.73
2022-09-20T11:05:09.701Z,0.60
2022-09-20T11:07:55.314Z,0.73
2022-09-20T11:10:30.715Z,0.90
2022-09-20T11:13:05.654Z,0.85
2022-09-20T11:15:41.767Z,0.57
2022-09-20T11:18:23.184Z,1.02
2022-09-20T11:21:15.150Z,0.90
2022-09-20T11:24:02.720Z,0.80
2022-09-20T11:26:43.351Z,1.25
2022-09-20T11:29:32.354Z,0.60
2022-09-20T11:32:13.896Z,0.90
2022-09-20T11:35:21.498Z,1.02
2022-09-20T11:41:05.218Z,1.08
2022-09-20T11:43:35.533Z,0.82
2022-09-20T11:46:07.942Z,0.90
2022-09-20T11:49:11.013Z,1.08
2022-09-20T11:52:19.913Z,1.10
2022-09-20T11:55:15.250Z,0.82
2022-09-20T11:57:42.670Z,0.77
2022-09-20T12:00:10.549Z,0.70
2022-09-20T12:02:48.602Z,0.80
2022-09-20T12:05:25.125Z,0.70
2022-09-20T12:07:56.023Z,0.68
2022-09-20T12:10:35.211Z,0.80
2022-09-20T12:13:25.161Z,0.90
2022-09-20T12:16:07.497Z,1.05
2022-09-20T12:18:35.798Z,1.00
2022-09-20T12:21:15.015Z,1.00
2022-09-20T12:23:47.046Z,0.85
2022-09-20T12:26:21.004Z,0.75
2022-09-20T12:28:58.972Z,0.85
2022-09-20T12:31:29.225Z,0.93
2022-09-20T12:33:59.859Z,0.95
2022-09-20T12:36:30.110Z,0.93
2022-09-20T12:39:21.258Z,0.95
2022-09-20T12:41:57.785Z,0.80
2022-09-20T12:44:42.451Z,1.00
2022-09-20T12:47:09.788Z,0.98
2022-09-20T12:49:57.951Z,1.08
2022-09-20T12:52:48.382Z,1.20
2022-09-20T12:55:40.599Z,0.70
2022-09-20T12:58:14.250Z,1.75
2022-09-20T13:00:42.775Z,0.80
2022-09-20T13:03:24.039Z,1.15
2022-09-20T13:06:14.921Z,0.80
2022-09-20T13:09:09.058Z,1.17
2022-09-20T13:11:47.540Z,1.10
2022-09-20T13:14:28.138Z,1.38
2022-09-20T13:17:14.025Z,1.02
2022-09-20T13:19:44.934Z,0.90
2022-09-20T13:22:20.629Z,1.02
2022-09-20T13:24:50.576Z,1.13
2022-09-20T13:27:32.516Z,1.55
2022-09-20T13:30:32.755Z,1.17
2022-09-20T13:33:17.510Z,1.67
2022-09-20T13:35:48.366Z,1.10
2022-09-20T13:38:24.439Z,1.02
2022-09-20T13:43:35.932Z,1.00
2022-09-20T13:46:12.370Z,1.38
2022-09-20T13:48:40.832Z,0.85
2022-09-20T13:51:27.018Z,1.20
2022-09-20T13:54:30.914Z,1.33
2022-09-20T13:57:05.438Z,1.20
2022-09-20T13:59:45.406Z,1.15
2022-09-20T14:02:40.263Z,1.17
2022-09-20T14:05:19.237Z,1.00
2022-09-20T14:07:48.280Z,1.00
2022-09-20T14:10:32.361Z,1.30
2022-09-20T14:13:02.319Z,1.17
2022-09-20T14:15:38.337Z,1.25
2022-09-20T14:20:34.990Z,1.15
2022-09-20T14:23:02.627Z,1.40
2022-09-20T14:25:30.034Z,1.42
2022-09-20T14:28:17.618Z,1.25
2022-09-20T14:30:47.261Z,1.27
2022-09-20T14:33:20.797Z,1.30
2022-09-20T14:35:51.024Z,1.30
2022-09-20T14:38:27.755Z,1.65
2022-09-20T14:40:56.803Z,1.00
2022-09-20T14:43:34.810Z,1.20
2022-09-20T14:46:06.737Z,1.00
2022-09-20T14:48:41.356Z,1.20
2022-09-20T14:51:18.828Z,1.67
2022-09-20T14:54:08.782Z,1.02
2022-09-20T14:56:39.616Z,1.23
2022-09-20T14:59:19.082Z,1.90
2022-09-20T15:02:03.835Z,1.35
2022-09-20T15:04:33.214Z,1.45
2022-09-20T15:07:13.220Z,1.10
2022-09-20T15:09:40.723Z,1.23
2022-09-20T15:12:16.201Z,1.40
2022-09-20T15:14:44.335Z,2.15
2022-09-20T15:17:18.071Z,1.20
2022-09-20T15:19:46.543Z,1.45
2022-09-20T15:22:14.346Z,1.10
2022-09-20T15:24:42.301Z,1.42
2022-09-20T15:27:12.135Z,1.17
2022-09-20T15:29:39.877Z,1.15
2022-09-20T15:32:10.646Z,1.33
2022-09-20T15:34:38.490Z,1.10
2022-09-20T15:37:06.044Z,1.70
2022-09-20T15:39:33.517Z,1.05
2022-09-20T15:42:01.448Z,1.10
2022-09-20T15:44:29.411Z,1.58
2022-09-20T15:46:56.832Z,1.35
2022-09-20T15:49:24.318Z,0.82
2022-09-20T15:51:52.702Z,1.17
2022-09-20T15:54:20.200Z,0.98
2022-09-20T15:56:47.633Z,1.60
2022-09-20T15:59:16.389Z,1.27
2022-09-20T16:01:45.677Z,1.08
2022-09-20T16:04:19.468Z,1.10
2022-09-20T16:06:49.559Z,1.45
2022-09-20T16:09:18.311Z,1.27
2022-09-20T16:11:47.212Z,2.00
2022-09-20T16:14:15.192Z,2.38
2022-09-20T16:16:42.911Z,1.13
2022-09-20T16:19:25.008Z,1.20
2022-09-20T16:21:58.672Z,1.00
2022-09-20T16:24:35.454Z,1.70
2022-09-20T16:27:06.168Z,1.27
2022-09-20T16:29:34.303Z,1.33
2022-09-20T16:32:03.740Z,1.40
2022-09-20T16:34:34.129Z,1.10
2022-09-20T16:37:14.827Z,1.13
2022-09-20T16:39:42.654Z,1.42
2022-09-20T16:42:12.362Z,1.75
2022-09-20T16:44:43.745Z,1.33
2022-09-20T16:47:24.881Z,1.10
2022-09-20T16:49:53.230Z,1.48
2022-09-20T16:52:21.070Z,1.50
2022-09-20T16:54:48.840Z,1.38
2022-09-20T16:57:16.638Z,1.23
2022-09-20T16:59:46.565Z,1.45
2022-09-20T17:02:14.162Z,1.10
2022-09-20T17:04:43.693Z,1.25
2022-09-20T17:07:11.245Z,1.30
2022-09-20T17:09:38.626Z,1.33
2022-09-20T17:12:09.413Z,1.33
2022-09-20T17:14:37.267Z,1.00
2022-09-20T17:17:04.758Z,1.60
2022-09-20T17:19:33.873Z,1.10
2022-09-20T17:22:01.609Z,1.58
2022-09-20T17:24:30.320Z,1.33
2022-09-20T17:26:59.052Z,1.50
2022-09-20T17:29:27.639Z,1.10
2022-09-20T17:31:59.595Z,1.65
2022-09-20T17:34:29.482Z,1.20
2022-09-20T17:36:57.079Z,1.10
2022-09-20T17:39:24.872Z,1.35
2022-09-20T17:41:56.259Z,1.20
2022-09-20T17:44:24.146Z,1.35
2022-09-20T17:46:54.181Z,1.30
2022-09-20T17:49:23.457Z,1.55
2022-09-20T17:51:55.749Z,1.40
2022-09-20T17:54:24.564Z,1.08
2022-09-20T17:56:58.462Z,1.15
2022-09-20T17:59:26.342Z,1.40
2022-09-20T18:01:55.308Z,1.77
2022-09-20T18:04:25.231Z,1.40
2022-09-20T18:06:53.966Z,1.30
2022-09-20T18:09:25.493Z,1.35
2022-09-20T18:11:54.965Z,1.40
2022-09-20T18:14:27.954Z,1.40
2022-09-20T18:16:58.113Z,1.10
2022-09-20T18:19:32.530Z,1.13
2022-09-20T18:22:01.571Z,1.20
2022-09-20T18:24:29.694Z,1.63
2022-09-20T18:26:57.052Z,1.35
2022-09-20T18:29:24.990Z,1.70
2022-09-20T18:31:57.979Z,3.03
2022-09-20T18:34:33.420Z,2.00
2022-09-20T18:37:01.631Z,1.80
2022-09-20T18:39:35.027Z,1.88
2022-09-20T18:42:03.299Z,1.27
2022-09-20T18:44:33.567Z,1.23
2022-09-20T18:47:03.774Z,1.50
2022-09-20T18:49:32.434Z,1.05
2022-09-20T18:52:00.533Z,1.40
2022-09-20T18:54:33.402Z,1.35
2022-09-20T18:57:02.302Z,1.30
2022-09-20T18:59:29.903Z,1.25
2022-09-20T19:02:23.588Z,1.48
2022-09-20T19:05:09.832Z,1.90
2022-09-20T19:07:56.098Z,1.20
2022-09-20T19:10:27.102Z,1.30
2022-09-20T19:12:57.392Z,1.20
2022-09-20T19:15:43.390Z,2.00
2022-09-20T19:18:39.065Z,1.60
2022-09-20T19:21:06.620Z,1.63
2022-09-20T19:24:08.136Z,1.75
2022-09-20T19:26:38.547Z,1.50
2022-09-20T19:29:37.046Z,2.28
2022-09-20T19:32:04.977Z,1.60
2022-09-20T19:34:33.416Z,1.42
2022-09-20T19:37:12.381Z,1.50
2022-09-20T19:39:45.928Z,1.30
2022-09-20T19:42:53.042Z,1.70
2022-09-20T19:45:29.034Z,1.27
2022-09-20T19:48:21.884Z,2.90
2022-09-20T19:50:52.902Z,1.88
2022-09-20T19:53:27.622Z,1.10
2022-09-20T19:56:00.823Z,1.40
2022-09-20T19:58:28.769Z,1.33
2022-09-20T20:00:58.038Z,1.42
2022-09-20T20:03:27.505Z,1.35
2022-09-20T20:06:24.203Z,1.40
2022-09-20T20:09:08.682Z,1.65
2022-09-20T20:12:06.327Z,1.40
2022-09-20T20:15:07.595Z,2.83
2022-09-20T20:17:47.119Z,1.60
2022-09-20T20:20:35.858Z,1.48
2022-09-20T20:23:15.318Z,1.77
2022-09-20T20:25:48.979Z,1.73
2022-09-20T20:28:16.462Z,1.98
2022-09-20T20:30:43.974Z,1.55
2022-09-20T20:33:18.953Z,1.73
2022-09-20T20:35:57.769Z,1.75
2022-09-20T20:38:26.654Z,1.40
2022-09-20T20:41:03.927Z,1.73
2022-09-20T20:43:42.507Z,1.73
2022-09-20T20:46:14.300Z,1.45
2022-09-20T20:48:42.311Z,2.00
2022-09-20T20:51:11.859Z,1.58
2022-09-20T20:53:41.948Z,1.60
2022-09-20T20:56:12.229Z,1.48
2022-09-20T20:58:41.810Z,1.40
2022-09-20T21:01:15.092Z,1.80
2022-09-20T21:03:46.805Z,1.30
2022-09-20T21:06:15.577Z,1.80
2022-09-20T21:08:49.124Z,1.48
2022-09-20T21:11:20.428Z,1.58
2022-09-20T21:13:50.795Z,1.58
2022-09-20T21:16:20.707Z,1.60
2022-09-20T21:18:49.503Z,1.40
2022-09-20T21:21:21.026Z,1.50
2022-09-20T21:23:51.249Z,1.77
2022-09-20T21:26:19.794Z,1.33
2022-09-20T21:29:11.165Z,1.55
2022-09-20T21:31:43.966Z,1.48
2022-09-20T21:34:13.670Z,1.30
2022-09-20T21:36:41.672Z,1.15
2022-09-20T21:39:09.115Z,1.40
2022-09-20T21:41:38.089Z,1.55
2022-09-20T21:44:07.322Z,1.52
2022-09-20T21:46:37.093Z,1.27
2022-09-20T21:49:06.274Z,1.20
2022-09-20T21:51:34.883Z,1.40
2022-09-20T21:54:02.998Z,1.77
2022-09-20T21:56:32.867Z,1.63
2022-09-20T21:59:02.944Z,1.50
2022-09-20T22:01:35.282Z,1.23
2022-09-20T22:04:08.338Z,1.45
2022-09-20T22:06:38.658Z,1.48
2022-09-20T22:09:11.298Z,1.25
2022-09-20T22:11:45.462Z,1.10
2022-09-20T22:14:14.576Z,1.50
2022-09-20T22:16:44.664Z,1.30
2022-09-20T22:19:14.789Z,1.63
2022-09-20T22:21:44.530Z,1.73
2022-09-20T22:24:13.597Z,1.23
2022-09-20T22:26:48.494Z,1.40
2022-09-20T22:29:16.683Z,1.13
2022-09-20T22:31:45.681Z,1.30
2022-09-20T22:34:18.711Z,1.25
2022-09-20T22:36:46.799Z,1.10
2022-09-20T22:39:14.799Z,1.30
2022-09-20T22:41:42.809Z,1.38
2022-09-20T22:44:10.875Z,1.25
2022-09-20T22:46:38.643Z,1.38
2022-09-20T22:49:07.094Z,1.40
2022-09-20T22:51:35.044Z,1.52
2022-09-20T22:54:11.202Z,1.50
2022-09-20T22:59:09.793Z,1.58
2022-09-20T23:01:41.121Z,1.10
2022-09-20T23:04:14.388Z,1.30
2022-09-20T23:06:47.892Z,1.60
2022-09-20T23:09:17.989Z,1.40
2022-09-20T23:11:46.130Z,1.63
2022-09-20T23:14:19.491Z,1.30
2022-09-20T23:16:47.945Z,1.30
2022-09-20T23:19:15.804Z,1.77
2022-09-20T23:21:43.688Z,1.67
2022-09-20T23:24:13.219Z,1.42
2022-09-20T23:26:41.770Z,1.50
2022-09-20T23:29:12.405Z,1.42
2022-09-20T23:31:45.287Z,1.60
2022-09-20T23:34:14.402Z,1.25
2022-09-20T23:36:42.475Z,1.60
2022-09-20T23:39:11.362Z,1.50
2022-09-20T23:41:38.995Z,1.20
2022-09-20T23:44:07.440Z,1.20
2022-09-20T23:46:34.787Z,1.33
2022-09-20T23:49:03.320Z,1.30
2022-09-20T23:51:30.876Z,1.55
2022-09-20T23:53:58.464Z,1.20
2022-09-20T23:56:26.851Z,1.10
2022-09-20T23:58:54.357Z,1.48
